Dades meteomassalio
 
Diari Summary for Juliol 26, 2017 Units:  Metric    English   Both
« Previous Day
Next Day »
Diari Semanal Mensual Anual Personalitzat
  Actual: Maxima: Minima: Mijana:
Temperatura: 27.6 °C 31.8 °C 16.6 °C 23.2 °C
Rosada: 11.2 °C 13.4 °C 9.8 °C 11.3 °C
Humitat: 36 % 68 % 29 % 49 %
Velocitat del vent: 13.0 km/h 37.0 km/h 0.0 km/h 20.7 km/h
Racha vent: 13.0 km/h 37.0 km/h - -
Vent:West - - WNW
Pressio: 1013.8 hPa 1016.5 hPa 1012.1 hPa -
Pluja: 0.0 mm      
Historical Graphs
 
 
Tabular Data for Juliol 26, 2017
Time Temperature Dew Point Pressure Wind Wind Speed Wind Gust Humidity Rainfall Rate (Hourly) solar Conditions
00:00 19.7 °C 10.7 °C 1015.8 hPa West 27.4 km/h 27.4 km/h 56 % 0.0 mm 0.0 W/m2 CLR
00:05 19.6 °C 10.6 °C 1015.8 hPa West 31.5 km/h 31.5 km/h 56 % 0.0 mm 0.0 W/m2 CLR
00:10 19.5 °C 10.5 °C 1015.8 hPa WNW 25.7 km/h 25.7 km/h 56 % 0.0 mm 0.0 W/m2 CLR
00:15 19.4 °C 10.4 °C 1015.5 hPa West 31.5 km/h 31.5 km/h 56 % 0.0 mm 0.0 W/m2 CLR
00:20 19.3 °C 10.6 °C 1015.5 hPa West 20.4 km/h 20.4 km/h 57 % 0.0 mm 0.0 W/m2 CLR
00:25 19.3 °C 10.6 °C 1015.5 hPa West 27.4 km/h 27.4 km/h 57 % 0.0 mm 0.0 W/m2 CLR
00:30 19.3 °C 10.6 °C 1015.5 hPa WSW 31.5 km/h 31.5 km/h 57 % 0.0 mm 0.0 W/m2 CLR
00:35 19.3 °C 10.6 °C 1015.8 hPa WNW 25.7 km/h 25.7 km/h 57 % 0.0 mm 0.0 W/m2 CLR
00:40 19.2 °C 10.5 °C 1015.8 hPa WNW 25.9 km/h 25.9 km/h 57 % 0.0 mm 0.0 W/m2 CLR
00:45 19.2 °C 10.5 °C 1016.1 hPa West 35.2 km/h 35.2 km/h 57 % 0.0 mm 0.0 W/m2 CLR
00:50 19.1 °C 10.7 °C 1016.1 hPa West 20.4 km/h 20.4 km/h 58 % 0.0 mm 0.0 W/m2 CLR
00:55 19.1 °C 10.6 °C 1015.8 hPa WNW 31.5 km/h 31.5 km/h 58 % 0.0 mm 0.0 W/m2 CLR
01:00 19.0 °C 10.6 °C 1015.8 hPa WNW 33.3 km/h 33.3 km/h 58 % 0.0 mm 0.0 W/m2 CLR
01:05 18.9 °C 10.5 °C 1015.8 hPa West 33.3 km/h 33.3 km/h 58 % 0.0 mm 0.0 W/m2 CLR
01:10 18.8 °C 10.7 °C 1015.8 hPa West 27.8 km/h 27.8 km/h 59 % 0.0 mm 0.0 W/m2 CLR
01:11 18.8 °C 10.7 °C 1015.8 hPa West 29.6 km/h 29.6 km/h 59 % 0.0 mm 0.0 W/m2 CLR
01:16 18.7 °C 10.8 °C 1015.8 hPa West 24.1 km/h 24.1 km/h 60 % 0.0 mm 0.0 W/m2 CLR
01:21 18.7 °C 10.7 °C 1015.8 hPa West 31.5 km/h 31.5 km/h 60 % 0.0 mm 0.0 W/m2 CLR
01:26 18.6 °C 10.7 °C 1015.8 hPa West 20.9 km/h 20.9 km/h 60 % 0.0 mm 0.0 W/m2 CLR
01:31 18.5 °C 10.8 °C 1015.8 hPa WNW 31.5 km/h 31.5 km/h 61 % 0.0 mm 0.0 W/m2 CLR
01:36 18.4 °C 10.7 °C 1015.8 hPa West 31.5 km/h 31.5 km/h 61 % 0.0 mm 0.0 W/m2 CLR
01:41 18.3 °C 10.7 °C 1015.8 hPa West 25.9 km/h 25.9 km/h 61 % 0.0 mm 0.0 W/m2 CLR
01:46 18.3 °C 10.7 °C 1015.8 hPa West 29.6 km/h 29.6 km/h 61 % 0.0 mm 0.0 W/m2 CLR
01:48 18.3 °C 10.7 °C 1015.8 hPa West 25.9 km/h 25.9 km/h 61 % 0.0 mm 0.0 W/m2 CLR
01:53 18.3 °C 10.9 °C 1015.8 hPa WNW 29.6 km/h 29.6 km/h 62 % 0.0 mm 0.0 W/m2 CLR
01:58 18.2 °C 10.6 °C 1015.8 hPa West 25.9 km/h 25.9 km/h 61 % 0.0 mm 0.0 W/m2 CLR
02:03 18.2 °C 10.5 °C 1015.8 hPa West 20.4 km/h 20.4 km/h 61 % 0.0 mm 0.0 W/m2 CLR
02:08 18.1 °C 10.4 °C 1015.8 hPa West 18.5 km/h 18.5 km/h 61 % 0.0 mm 0.0 W/m2 CLR
02:13 18.1 °C 10.4 °C 1015.5 hPa West 29.6 km/h 29.6 km/h 61 % 0.0 mm 0.0 W/m2 CLR
02:18 18.1 °C 10.4 °C 1015.5 hPa WSW 11.1 km/h 11.1 km/h 61 % 0.0 mm 0.0 W/m2 CLR
02:23 18.0 °C 10.4 °C 1015.5 hPa West 25.9 km/h 25.9 km/h 61 % 0.0 mm 0.0 W/m2 CLR
02:28 18.0 °C 10.4 °C 1015.5 hPa WSW 27.8 km/h 27.8 km/h 61 % 0.0 mm 0.0 W/m2 CLR
02:33 17.9 °C 10.3 °C 1015.5 hPa West 20.9 km/h 20.9 km/h 61 % 0.0 mm 0.0 W/m2 CLR
02:36 18.0 °C 10.4 °C 1015.5 hPa WNW 25.9 km/h 25.9 km/h 61 % 0.0 mm 0.0 W/m2 CLR
02:41 18.0 °C 10.4 °C 1015.5 hPa West 29.6 km/h 29.6 km/h 61 % 0.0 mm 0.0 W/m2 CLR
02:46 18.0 °C 10.4 °C 1015.5 hPa West 29.6 km/h 29.6 km/h 61 % 0.0 mm 0.0 W/m2 CLR
02:51 18.0 °C 10.4 °C 1015.5 hPa West 25.9 km/h 25.9 km/h 61 % 0.0 mm 0.0 W/m2 CLR
02:56 18.0 °C 10.4 °C 1015.1 hPa West 37.0 km/h 37.0 km/h 61 % 0.0 mm 0.0 W/m2 CLR
03:01 18.0 °C 10.4 °C 1015.1 hPa West 37.0 km/h 37.0 km/h 61 % 0.0 mm 0.0 W/m2 CLR
03:06 17.9 °C 10.3 °C 1015.5 hPa West 24.1 km/h 24.1 km/h 61 % 0.0 mm 0.0 W/m2 CLR
03:11 17.9 °C 10.5 °C 1015.5 hPa West 18.5 km/h 18.5 km/h 62 % 0.0 mm 0.0 W/m2 CLR
03:17 17.8 °C 10.4 °C 1015.5 hPa West 14.5 km/h 14.5 km/h 62 % 0.0 mm 0.0 W/m2 CLR
03:22 17.7 °C 10.3 °C 1015.5 hPa West 5.6 km/h 5.6 km/h 62 % 0.0 mm 0.0 W/m2 CLR
03:27 17.6 °C 10.5 °C 1015.5 hPa SW 11.1 km/h 11.1 km/h 63 % 0.0 mm 0.0 W/m2 CLR
03:32 17.6 °C 10.4 °C 1015.5 hPa WNW 16.7 km/h 16.7 km/h 63 % 0.0 mm 0.0 W/m2 CLR
03:37 17.6 °C 10.4 °C 1015.5 hPa West 13.0 km/h 13.0 km/h 63 % 0.0 mm 0.0 W/m2 CLR
03:42 17.6 °C 10.7 °C 1015.5 hPa West 24.1 km/h 24.1 km/h 64 % 0.0 mm 0.0 W/m2 CLR
03:47 17.6 °C 10.7 °C 1015.5 hPa West 16.7 km/h 16.7 km/h 64 % 0.0 mm 0.0 W/m2 CLR
03:52 17.4 °C 10.6 °C 1015.5 hPa West 22.2 km/h 22.2 km/h 64 % 0.0 mm 0.0 W/m2 CLR
03:57 17.5 °C 10.6 °C 1015.5 hPa West 20.4 km/h 20.4 km/h 64 % 0.0 mm 0.0 W/m2 CLR
04:02 17.5 °C 10.6 °C 1015.5 hPa West 18.5 km/h 18.5 km/h 64 % 0.0 mm 0.0 W/m2 CLR
04:03 17.5 °C 10.6 °C 1015.5 hPa West 18.5 km/h 18.5 km/h 64 % 0.0 mm 0.0 W/m2 CLR
04:08 17.4 °C 10.6 °C 1015.5 hPa West 18.5 km/h 18.5 km/h 64 % 0.0 mm 0.0 W/m2 CLR
04:13 17.4 °C 10.6 °C 1015.5 hPa West 18.5 km/h 18.5 km/h 64 % 0.0 mm 0.0 W/m2 CLR
04:18 17.4 °C 10.6 °C 1015.5 hPa WNW 16.7 km/h 16.7 km/h 64 % 0.0 mm 0.0 W/m2 CLR
04:23 17.4 °C 10.6 °C 1015.5 hPa West 18.5 km/h 18.5 km/h 64 % 0.0 mm 0.0 W/m2 CLR
04:28 17.4 °C 10.6 °C 1015.5 hPa West 14.8 km/h 14.8 km/h 64 % 0.0 mm 0.0 W/m2 CLR
04:33 17.4 °C 10.6 °C 1015.5 hPa WNW 24.1 km/h 24.1 km/h 64 % 0.0 mm 0.0 W/m2 CLR
04:38 17.4 °C 10.6 °C 1015.5 hPa West 19.3 km/h 19.3 km/h 64 % 0.0 mm 0.0 W/m2 CLR
04:43 17.4 °C 10.7 °C 1015.5 hPa West 16.7 km/h 16.7 km/h 65 % 0.0 mm 0.0 W/m2 CLR
04:48 17.4 °C 10.7 °C 1015.5 hPa WNW 18.5 km/h 18.5 km/h 65 % 0.0 mm 0.0 W/m2 CLR
04:53 17.3 °C 10.7 °C 1015.5 hPa WNW 16.7 km/h 16.7 km/h 65 % 0.0 mm 0.0 W/m2 CLR
04:58 17.2 °C 10.6 °C 1015.5 hPa West 17.7 km/h 17.7 km/h 65 % 0.0 mm 0.0 W/m2 CLR
05:03 17.2 °C 10.8 °C 1015.1 hPa West 16.7 km/h 16.7 km/h 66 % 0.0 mm 0.0 W/m2 CLR
05:08 17.1 °C 10.7 °C 1015.1 hPa West 29.0 km/h 29.0 km/h 66 % 0.0 mm 0.0 W/m2 CLR
05:13 17.1 °C 10.7 °C 1015.5 hPa West 20.4 km/h 20.4 km/h 66 % 0.0 mm 0.0 W/m2 CLR
05:18 17.1 °C 10.7 °C 1015.5 hPa West 25.9 km/h 25.9 km/h 66 % 0.0 mm 0.0 W/m2 CLR
05:23 17.1 °C 10.7 °C 1015.5 hPa WSW 9.3 km/h 9.3 km/h 66 % 0.0 mm 0.0 W/m2 CLR
05:28 17.0 °C 10.6 °C 1015.5 hPa WSW 14.8 km/h 14.8 km/h 66 % 0.0 mm 0.0 W/m2 CLR
05:33 17.0 °C 10.6 °C 1015.5 hPa West 5.6 km/h 5.6 km/h 66 % 0.0 mm 0.0 W/m2 CLR
05:38 16.9 °C 10.6 °C 1015.5 hPa WNW 20.4 km/h 20.4 km/h 66 % 0.0 mm 0.0 W/m2 CLR
05:43 16.9 °C 10.6 °C 1015.5 hPa West 7.4 km/h 7.4 km/h 66 % 0.0 mm 0.0 W/m2 CLR
05:48 16.9 °C 10.6 °C 1015.5 hPa West 20.4 km/h 20.4 km/h 66 % 0.0 mm 0.0 W/m2 CLR
05:53 16.9 °C 10.6 °C 1015.5 hPa West 18.5 km/h 18.5 km/h 66 % 0.0 mm 0.0 W/m2 CLR
05:58 16.9 °C 10.5 °C 1015.5 hPa West 18.5 km/h 18.5 km/h 66 % 0.0 mm 0.0 W/m2 CLR
06:04 16.9 °C 10.5 °C 1015.5 hPa WNW 20.4 km/h 20.4 km/h 66 % 0.0 mm 0.0 W/m2 CLR
06:09 16.9 °C 10.5 °C 1015.5 hPa West 20.9 km/h 20.9 km/h 66 % 0.0 mm 0.0 W/m2 CLR
06:14 16.8 °C 10.4 °C 1015.5 hPa WNW 16.7 km/h 16.7 km/h 66 % 0.0 mm 0.0 W/m2 CLR
06:19 16.8 °C 10.4 °C 1015.8 hPa WNW 18.5 km/h 18.5 km/h 66 % 0.0 mm 0.0 W/m2 CLR
06:24 16.8 °C 10.6 °C 1015.8 hPa NW 19.3 km/h 19.3 km/h 67 % 0.0 mm 0.0 W/m2 CLR
06:29 16.7 °C 10.6 °C 1015.8 hPa WNW 13.0 km/h 13.0 km/h 67 % 0.0 mm 0.0 W/m2 CLR
06:34 16.7 °C 10.6 °C 1015.8 hPa WNW 16.1 km/h 17.1 km/h 67 % 0.0 mm 0.0 W/m2 CLR
06:39 16.8 °C 10.6 °C 1015.8 hPa WNW 22.2 km/h 22.2 km/h 67 % 0.0 mm 0.0 W/m2 CLR
06:44 16.7 °C 10.6 °C 1015.8 hPa NW 20.9 km/h 20.9 km/h 67 % 0.0 mm 5.0 W/m2 OVC
06:49 16.7 °C 10.6 °C 1015.8 hPa WNW 18.5 km/h 18.5 km/h 67 % 0.0 mm 0.0 W/m2 OVC
06:54 16.7 °C 10.6 °C 1015.8 hPa NW 14.8 km/h 14.8 km/h 67 % 0.0 mm 5.0 W/m2 OVC
06:59 16.7 °C 10.5 °C 1015.8 hPa WNW 13.0 km/h 13.0 km/h 67 % 0.0 mm 9.0 W/m2 BKN
07:04 16.6 °C 10.4 °C 1015.8 hPa WNW 11.1 km/h 11.1 km/h 67 % 0.0 mm 12.0 W/m2 BKN
07:09 16.6 °C 10.7 °C 1015.8 hPa West 14.8 km/h 14.8 km/h 68 % 0.0 mm 18.0 W/m2 BKN
07:14 16.6 °C 10.7 °C 1015.8 hPa West 13.0 km/h 13.0 km/h 68 % 0.0 mm 25.0 W/m2 BKN
07:19 16.7 °C 10.8 °C 1015.8 hPa WNW 13.0 km/h 13.0 km/h 68 % 0.0 mm 28.0 W/m2 BKN
07:24 16.8 °C 10.6 °C 1015.8 hPa West 11.1 km/h 11.1 km/h 67 % 0.0 mm 35.0 W/m2 BKN
07:29 16.9 °C 10.7 °C 1015.8 hPa West 18.5 km/h 18.5 km/h 67 % 0.0 mm 39.0 W/m2 BKN
07:34 17.0 °C 10.8 °C 1015.8 hPa Calm     67 % 0.0 mm 39.0 W/m2 BKN
07:39 17.1 °C 10.7 °C 1015.8 hPa West 14.8 km/h 14.8 km/h 66 % 0.0 mm 49.0 W/m2 SCT
07:44 17.1 °C 10.7 °C 1015.8 hPa WNW 11.1 km/h 11.1 km/h 66 % 0.0 mm 60.0 W/m2 SCT
07:49 17.1 °C 10.9 °C 1016.1 hPa NW 27.4 km/h 27.4 km/h 67 % 0.0 mm 83.0 W/m2 FEW
07:54 17.2 °C 10.8 °C 1016.1 hPa NW 16.7 km/h 16.7 km/h 66 % 0.0 mm 90.0 W/m2 FEW
07:59 17.3 °C 10.9 °C 1016.1 hPa WNW 17.7 km/h 17.7 km/h 66 % 0.0 mm 100.0 W/m2 CLR
08:04 17.4 °C 10.7 °C 1016.1 hPa WNW 22.2 km/h 22.2 km/h 65 % 0.0 mm 104.0 W/m2 CLR
08:09 17.5 °C 10.8 °C 1016.1 hPa West 20.4 km/h 20.4 km/h 65 % 0.0 mm 123.0 W/m2 CLR
08:14 17.6 °C 10.9 °C 1016.1 hPa WNW 25.9 km/h 25.9 km/h 65 % 0.0 mm 158.0 W/m2 CLR
08:19 17.7 °C 11.1 °C 1016.1 hPa West 20.4 km/h 20.4 km/h 65 % 0.0 mm 171.0 W/m2 CLR
08:24 17.8 °C 10.9 °C 1016.1 hPa WNW 27.8 km/h 27.8 km/h 64 % 0.0 mm 181.0 W/m2 CLR
08:29 17.9 °C 11.0 °C 1016.1 hPa WNW 22.2 km/h 22.2 km/h 64 % 0.0 mm 211.0 W/m2 CLR
08:34 18.0 °C 11.1 °C 1016.1 hPa WNW 20.4 km/h 20.4 km/h 64 % 0.0 mm 241.0 W/m2 CLR
08:39 18.1 °C 11.2 °C 1016.1 hPa West 22.2 km/h 22.2 km/h 64 % 0.0 mm 258.0 W/m2 CLR
08:44 18.2 °C 11.1 °C 1016.1 hPa NW 20.4 km/h 20.4 km/h 63 % 0.0 mm 234.0 W/m2 CLR
08:49 18.3 °C 11.1 °C 1016.1 hPa NW 18.5 km/h 18.5 km/h 63 % 0.0 mm 285.0 W/m2 CLR
08:54 18.4 °C 11.3 °C 1016.1 hPa WNW 18.5 km/h 18.5 km/h 63 % 0.0 mm 276.0 W/m2 CLR
08:59 18.4 °C 11.2 °C 1016.1 hPa NW 22.2 km/h 22.2 km/h 63 % 0.0 mm 288.0 W/m2 CLR
09:04 18.6 °C 11.4 °C 1016.1 hPa WNW 18.5 km/h 18.5 km/h 63 % 0.0 mm 288.0 W/m2 CLR
09:09 18.6 °C 11.2 °C 1016.1 hPa WNW 16.7 km/h 16.7 km/h 62 % 0.0 mm 292.0 W/m2 CLR
09:14 18.8 °C 11.4 °C 1016.1 hPa WNW 18.5 km/h 18.5 km/h 62 % 0.0 mm 302.0 W/m2 CLR
09:19 19.0 °C 11.3 °C 1016.1 hPa NW 27.8 km/h 27.8 km/h 61 % 0.0 mm 338.0 W/m2 CLR
09:24 19.0 °C 11.3 °C 1016.1 hPa NW 18.5 km/h 18.5 km/h 61 % 0.0 mm 366.0 W/m2 CLR
09:29 19.1 °C 11.1 °C 1016.1 hPa NW 27.8 km/h 27.8 km/h 60 % 0.0 mm 376.0 W/m2 CLR
09:34 19.1 °C 11.4 °C 1016.1 hPa NW 22.5 km/h 22.5 km/h 61 % 0.0 mm 404.0 W/m2 CLR
09:35 19.1 °C 11.4 °C 1016.1 hPa WNW 24.1 km/h 24.1 km/h 61 % 0.0 mm 404.0 W/m2 CLR
09:40 19.3 °C 11.6 °C 1016.1 hPa WNW 16.7 km/h 17.2 km/h 61 % 0.0 mm 432.0 W/m2 CLR
09:45 19.6 °C 11.3 °C 1016.1 hPa NNW 24.1 km/h 24.1 km/h 59 % 0.0 mm 473.0 W/m2 CLR
09:50 19.3 °C 11.4 °C 1016.1 hPa NW 31.5 km/h 31.5 km/h 60 % 0.0 mm 476.0 W/m2 CLR
09:55 19.5 °C 11.5 °C 1016.1 hPa WNW 20.4 km/h 20.4 km/h 60 % 0.0 mm 316.0 W/m2 CLR
10:00 19.7 °C 11.2 °C 1016.5 hPa NW 27.8 km/h 27.8 km/h 58 % 0.0 mm 190.0 W/m2 CLR
10:05 20.0 °C 11.5 °C 1016.1 hPa NW 24.1 km/h 24.1 km/h 58 % 0.0 mm 461.0 W/m2 CLR
10:10 20.1 °C 11.6 °C 1016.1 hPa NW 27.8 km/h 27.8 km/h 58 % 0.0 mm 524.0 W/m2 CLR
10:15 20.0 °C 11.5 °C 1016.5 hPa WNW 27.8 km/h 27.8 km/h 58 % 0.0 mm 529.0 W/m2 CLR
10:20 20.1 °C 11.3 °C 1016.1 hPa NW 29.6 km/h 29.6 km/h 57 % 0.0 mm 548.0 W/m2 CLR
10:25 20.3 °C 11.2 °C 1016.1 hPa NW 27.8 km/h 27.8 km/h 56 % 0.0 mm 582.0 W/m2 CLR
10:30 20.4 °C 11.4 °C 1016.1 hPa NNW 27.8 km/h 27.8 km/h 56 % 0.0 mm 589.0 W/m2 CLR
10:35 20.5 °C 11.4 °C 1016.1 hPa NW 20.4 km/h 20.4 km/h 56 % 0.0 mm 608.0 W/m2 CLR
10:40 20.7 °C 11.6 °C 1016.1 hPa NW 18.5 km/h 18.5 km/h 56 % 0.0 mm 612.0 W/m2 CLR
10:45 20.9 °C 11.6 °C 1016.1 hPa NW 18.5 km/h 18.5 km/h 55 % 0.0 mm 624.0 W/m2 CLR
10:50 21.1 °C 11.4 °C 1015.8 hPa NNW 27.8 km/h 27.8 km/h 54 % 0.0 mm 629.0 W/m2 CLR
10:55 21.1 °C 11.4 °C 1015.8 hPa NW 24.1 km/h 24.1 km/h 54 % 0.0 mm 659.0 W/m2 CLR
11:00 21.3 °C 11.3 °C 1015.8 hPa NNW 25.9 km/h 25.9 km/h 53 % 0.0 mm 656.0 W/m2 CLR
11:05 21.4 °C 11.4 °C 1015.8 hPa NNW 24.1 km/h 24.1 km/h 53 % 0.0 mm 670.0 W/m2 CLR
11:10 21.5 °C 11.5 °C 1015.8 hPa NW 20.4 km/h 20.4 km/h 53 % 0.0 mm 657.0 W/m2 CLR
11:15 21.6 °C 11.6 °C 1015.8 hPa West 16.7 km/h 16.7 km/h 53 % 0.0 mm 705.0 W/m2 CLR
11:20 21.7 °C 12.0 °C 1015.8 hPa NW 20.4 km/h 20.4 km/h 54 % 0.0 mm 721.0 W/m2 CLR
11:25 22.1 °C 11.8 °C 1015.8 hPa NW 22.2 km/h 22.2 km/h 52 % 0.0 mm 731.0 W/m2 CLR
11:30 22.3 °C 11.7 °C 1015.8 hPa NW 16.7 km/h 16.7 km/h 51 % 0.0 mm 722.0 W/m2 CLR
11:35 22.4 °C 11.5 °C 1015.8 hPa West 18.5 km/h 18.5 km/h 50 % 0.0 mm 726.0 W/m2 CLR
11:40 22.6 °C 11.3 °C 1015.8 hPa NW 30.6 km/h 30.6 km/h 49 % 0.0 mm 756.0 W/m2 CLR
11:45 22.7 °C 11.7 °C 1015.8 hPa NW 22.2 km/h 22.2 km/h 50 % 0.0 mm 761.0 W/m2 CLR
11:50 22.7 °C 11.8 °C 1015.8 hPa NNW 1.9 km/h 1.9 km/h 50 % 0.0 mm 754.0 W/m2 CLR
11:55 22.6 °C 11.3 °C 1015.8 hPa NW 27.8 km/h 27.8 km/h 49 % 0.0 mm 791.0 W/m2 CLR
12:00 22.8 °C 11.6 °C 1015.5 hPa North 20.4 km/h 20.4 km/h 49 % 0.0 mm 777.0 W/m2 CLR
12:05 23.2 °C 11.6 °C 1015.5 hPa WNW 22.2 km/h 22.2 km/h 48 % 0.0 mm 795.0 W/m2 CLR
12:10 23.1 °C 11.8 °C 1015.8 hPa WNW 20.4 km/h 20.4 km/h 49 % 0.0 mm 795.0 W/m2 CLR
12:15 23.1 °C 11.8 °C 1015.5 hPa NW 17.7 km/h 17.7 km/h 49 % 0.0 mm 798.0 W/m2 CLR
12:20 23.6 °C 11.6 °C 1015.5 hPa WNW 16.7 km/h 16.7 km/h 47 % 0.0 mm 833.0 W/m2 CLR
12:25 23.8 °C 11.5 °C 1015.5 hPa WNW 22.2 km/h 22.2 km/h 46 % 0.0 mm 830.0 W/m2 CLR
12:30 23.8 °C 11.5 °C 1015.5 hPa WSW 7.4 km/h 7.4 km/h 46 % 0.0 mm 844.0 W/m2 CLR
12:35 24.0 °C 11.7 °C 1015.5 hPa SSW 9.3 km/h   46 % 0.0 mm 840.0 W/m2 CLR
12:40 24.4 °C 11.7 °C 1015.5 hPa NNW 27.8 km/h 27.8 km/h 45 % 0.0 mm 812.0 W/m2 CLR
12:45 24.4 °C 11.3 °C 1015.1 hPa NNW 14.5 km/h 14.5 km/h 44 % 0.0 mm 881.0 W/m2 CLR
12:50 24.6 °C 11.6 °C 1015.1 hPa NNW 29.6 km/h 29.6 km/h 44 % 0.0 mm 877.0 W/m2 CLR
12:55 24.7 °C 11.3 °C 1015.1 hPa NW 25.9 km/h 25.9 km/h 43 % 0.0 mm 889.0 W/m2 CLR
13:00 24.8 °C 11.1 °C 1015.1 hPa WNW 24.1 km/h 24.1 km/h 42 % 0.0 mm 898.0 W/m2 CLR
13:05 25.1 °C 10.9 °C 1015.1 hPa NNW 24.1 km/h 24.1 km/h 41 % 0.0 mm 870.0 W/m2 CLR
13:10 25.4 °C 10.8 °C 1014.8 hPa NNW 22.2 km/h 22.2 km/h 40 % 0.0 mm 868.0 W/m2 CLR
13:15 25.4 °C 10.4 °C 1014.8 hPa NNW 27.8 km/h 27.8 km/h 39 % 0.0 mm 888.0 W/m2 CLR
13:20 25.4 °C 10.4 °C 1014.8 hPa NW 25.9 km/h 25.9 km/h 39 % 0.0 mm 870.0 W/m2 CLR
13:25 25.8 °C 10.4 °C 1014.8 hPa NW 25.9 km/h 25.9 km/h 38 % 0.0 mm 926.0 W/m2 CLR
13:30 26.0 °C 10.6 °C 1014.8 hPa WNW 18.5 km/h 18.5 km/h 38 % 0.0 mm 898.0 W/m2 CLR
13:31 26.1 °C 10.7 °C 1014.8 hPa NNW 14.5 km/h 14.5 km/h 38 % 0.0 mm 898.0 W/m2 CLR
13:36 26.3 °C 10.5 °C 1014.8 hPa NW 22.2 km/h 22.2 km/h 37 % 0.0 mm 919.0 W/m2 CLR
13:41 26.1 °C 10.3 °C 1014.8 hPa North 22.2 km/h 22.2 km/h 37 % 0.0 mm 905.0 W/m2 CLR
13:45 26.3 °C 10.8 °C 1014.8 hPa NW 24.1 km/h 24.1 km/h 38 % 0.0 mm 909.0 W/m2 CLR
13:50 26.6 °C 10.7 °C 1014.8 hPa WNW 13.0 km/h 13.0 km/h 37 % 0.0 mm 921.0 W/m2 CLR
13:55 26.6 °C 10.7 °C 1014.4 hPa NW 20.4 km/h 20.4 km/h 37 % 0.0 mm 925.0 W/m2 CLR
14:00 26.8 °C 10.4 °C 1014.4 hPa WNW 20.9 km/h 20.9 km/h 36 % 0.0 mm 889.0 W/m2 CLR
14:05 27.0 °C 10.2 °C 1014.1 hPa WNW 20.9 km/h 20.9 km/h 35 % 0.0 mm 895.0 W/m2 CLR
14:10 27.1 °C 10.3 °C 1014.1 hPa WNW 18.5 km/h 18.5 km/h 35 % 0.0 mm 914.0 W/m2 CLR
14:15 27.3 °C 10.5 °C 1014.1 hPa NNW 20.4 km/h 20.4 km/h 35 % 0.0 mm 853.0 W/m2 CLR
14:20 27.3 °C 10.5 °C 1014.1 hPa NW 20.9 km/h 20.9 km/h 35 % 0.0 mm 898.0 W/m2 CLR
14:25 27.5 °C 10.2 °C 1014.1 hPa NW 24.1 km/h 24.1 km/h 34 % 0.0 mm 879.0 W/m2 CLR
14:30 27.6 °C 9.9 °C 1014.1 hPa North 20.4 km/h 20.4 km/h 33 % 0.0 mm 874.0 W/m2 CLR
14:35 27.9 °C 10.1 °C 1014.1 hPa NNW 22.2 km/h 22.2 km/h 33 % 0.0 mm 916.0 W/m2 CLR
14:40 28.1 °C 9.8 °C 1014.1 hPa North 24.1 km/h 24.1 km/h 32 % 0.0 mm 902.0 W/m2 CLR
14:45 28.4 °C 10.2 °C 1013.8 hPa NW 27.8 km/h 27.8 km/h 32 % 0.0 mm 867.0 W/m2 CLR
14:50 28.5 °C 10.2 °C 1013.8 hPa NNW 31.5 km/h 31.5 km/h 32 % 0.0 mm 868.0 W/m2 CLR
14:55 28.3 °C 10.5 °C 1013.8 hPa NNW 24.1 km/h 24.1 km/h 33 % 0.0 mm 870.0 W/m2 CLR
15:00 28.3 °C 10.4 °C 1013.8 hPa NW 13.0 km/h 13.0 km/h 33 % 0.0 mm 877.0 W/m2 CLR
15:05 28.3 °C 10.5 °C 1013.8 hPa NW 31.5 km/h 31.5 km/h 33 % 0.0 mm 844.0 W/m2 CLR
15:10 28.3 °C 10.9 °C 1013.8 hPa NNW 29.0 km/h 29.0 km/h 34 % 0.0 mm 847.0 W/m2 CLR
15:15 28.3 °C 10.9 °C 1013.8 hPa NW 31.5 km/h 31.5 km/h 34 % 0.0 mm 835.0 W/m2 CLR
15:20 28.6 °C 11.7 °C 1013.8 hPa NW 22.2 km/h 22.2 km/h 35 % 0.0 mm 837.0 W/m2 CLR
15:25 28.9 °C 11.4 °C 1013.8 hPa NNW 20.9 km/h 20.9 km/h 34 % 0.0 mm 844.0 W/m2 CLR
15:30 28.8 °C 11.8 °C 1013.8 hPa North 31.5 km/h 31.5 km/h 35 % 0.0 mm 791.0 W/m2 CLR
15:35 28.7 °C 11.7 °C 1013.4 hPa North 22.2 km/h 22.2 km/h 35 % 0.0 mm 860.0 W/m2 CLR
15:40 28.8 °C 11.8 °C 1013.8 hPa WNW 22.2 km/h 22.2 km/h 35 % 0.0 mm 861.0 W/m2 CLR
15:45 28.9 °C 11.9 °C 1013.8 hPa NNW 31.5 km/h 31.5 km/h 35 % 0.0 mm 795.0 W/m2 CLR
15:50 28.9 °C 11.9 °C 1013.4 hPa NNW 18.5 km/h 18.5 km/h 35 % 0.0 mm 793.0 W/m2 CLR
15:55 28.8 °C 11.8 °C 1013.4 hPa NNW 14.8 km/h 14.8 km/h 35 % 0.0 mm 807.0 W/m2 CLR
16:00 29.1 °C 12.1 °C 1013.4 hPa NNE 20.4 km/h 20.4 km/h 35 % 0.0 mm 830.0 W/m2 CLR
16:02 29.2 °C 11.7 °C 1013.4 hPa North 20.4 km/h 20.4 km/h 34 % 0.0 mm 791.0 W/m2 CLR
16:07 29.3 °C 11.8 °C 1013.4 hPa NW 27.8 km/h 27.8 km/h 34 % 0.0 mm 819.0 W/m2 CLR
16:12 29.4 °C 12.4 °C 1013.4 hPa WNW 24.1 km/h 24.1 km/h 35 % 0.0 mm 761.0 W/m2 CLR
16:17 29.3 °C 12.3 °C 1013.4 hPa NNW 20.9 km/h 20.9 km/h 35 % 0.0 mm 698.0 W/m2 CLR
16:22 29.3 °C 11.8 °C 1013.1 hPa WNW 18.5 km/h 18.5 km/h 34 % 0.0 mm 698.0 W/m2 CLR
16:27 29.4 °C 11.9 °C 1013.1 hPa NNW 24.1 km/h 24.1 km/h 34 % 0.0 mm 773.0 W/m2 CLR
16:32 29.3 °C 12.3 °C 1013.1 hPa NNW 20.4 km/h 20.4 km/h 35 % 0.0 mm 795.0 W/m2 CLR
16:37 29.6 °C 12.1 °C 1013.1 hPa NW 22.2 km/h 22.2 km/h 34 % 0.0 mm 664.0 W/m2 CLR
16:42 29.7 °C 12.2 °C 1013.1 hPa NW 16.7 km/h 16.7 km/h 34 % 0.0 mm 666.0 W/m2 CLR
16:47 30.2 °C 12.6 °C 1013.1 hPa North 5.6 km/h 5.6 km/h 34 % 0.0 mm 691.0 W/m2 CLR
16:52 30.2 °C 12.1 °C 1013.1 hPa Calm     33 % 0.0 mm 657.0 W/m2 CLR
16:57 30.3 °C 12.3 °C 1012.8 hPa NNW 5.6 km/h 5.6 km/h 33 % 0.0 mm 682.0 W/m2 CLR
17:02 30.3 °C 12.2 °C 1012.8 hPa West 5.6 km/h 5.6 km/h 33 % 0.0 mm 621.0 W/m2 CLR
17:07 30.4 °C 11.9 °C 1012.8 hPa NW 29.6 km/h 29.6 km/h 32 % 0.0 mm 645.0 W/m2 CLR
17:12 30.3 °C 11.8 °C 1012.4 hPa NNW 24.1 km/h 24.1 km/h 32 % 0.0 mm 694.0 W/m2 CLR
17:17 30.6 °C 12.4 °C 1012.4 hPa North 18.5 km/h 18.5 km/h 33 % 0.0 mm 624.0 W/m2 CLR
17:22 30.7 °C 12.1 °C 1012.4 hPa NW 18.5 km/h 18.5 km/h 32 % 0.0 mm 563.0 W/m2 CLR
17:27 30.8 °C 12.2 °C 1012.4 hPa North 25.7 km/h 25.7 km/h 32 % 0.0 mm 568.0 W/m2 CLR
17:32 30.6 °C 12.1 °C 1012.4 hPa NW 5.6 km/h 5.6 km/h 32 % 0.0 mm 527.0 W/m2 CLR
17:37 30.8 °C 11.7 °C 1012.4 hPa NW 16.7 km/h 16.7 km/h 31 % 0.0 mm 536.0 W/m2 CLR
17:42 31.1 °C 12.0 °C 1012.4 hPa NNW 4.8 km/h 4.8 km/h 31 % 0.0 mm 522.0 W/m2 CLR
17:47 31.3 °C 12.2 °C 1012.4 hPa NW 19.3 km/h 19.3 km/h 31 % 0.0 mm 575.0 W/m2 CLR
17:52 31.6 °C 11.9 °C 1012.1 hPa WNW 16.7 km/h 16.7 km/h 30 % 0.0 mm 598.0 W/m2 CLR
17:57 31.6 °C 11.3 °C 1012.1 hPa NNW 22.2 km/h 22.2 km/h 29 % 0.0 mm 580.0 W/m2 CLR
18:02 31.5 °C 11.8 °C 1012.4 hPa NNW 24.1 km/h 24.1 km/h 30 % 0.0 mm 559.0 W/m2 CLR
18:07 31.6 °C 11.9 °C 1012.1 hPa NW 22.2 km/h 22.2 km/h 30 % 0.0 mm 503.0 W/m2 CLR
18:12 31.3 °C 11.7 °C 1012.1 hPa North 29.6 km/h 29.6 km/h 30 % 0.0 mm 504.0 W/m2 CLR
18:17 31.2 °C 11.6 °C 1012.1 hPa NNW 16.7 km/h 16.7 km/h 30 % 0.0 mm 499.0 W/m2 CLR
18:22 31.5 °C 11.8 °C 1012.1 hPa WNW 24.1 km/h 24.1 km/h 30 % 0.0 mm 454.0 W/m2 CLR
18:27 31.8 °C 12.1 °C 1012.1 hPa North 25.9 km/h 25.9 km/h 30 % 0.0 mm 436.0 W/m2 CLR
18:32 31.4 °C 12.2 °C 1012.1 hPa NNW 24.1 km/h 24.1 km/h 31 % 0.0 mm 455.0 W/m2 CLR
18:37 31.2 °C 12.1 °C 1012.1 hPa NNW 24.1 km/h 24.1 km/h 31 % 0.0 mm 411.0 W/m2 CLR
18:42 31.3 °C 12.2 °C 1012.1 hPa NNW 20.4 km/h 20.4 km/h 31 % 0.0 mm 396.0 W/m2 CLR
18:47 31.3 °C 12.7 °C 1012.1 hPa NNE 24.1 km/h 24.1 km/h 32 % 0.0 mm 357.0 W/m2 CLR
18:52 31.3 °C 13.1 °C 1012.1 hPa NNW 18.5 km/h 18.5 km/h 33 % 0.0 mm 364.0 W/m2 CLR
18:57 31.3 °C 12.7 °C 1012.1 hPa NNW 5.6 km/h 5.6 km/h 32 % 0.0 mm 311.0 W/m2 CLR
19:02 31.4 °C 13.2 °C 1012.1 hPa WNW 24.1 km/h 24.1 km/h 33 % 0.0 mm 283.0 W/m2 CLR
19:07 31.4 °C 13.2 °C 1012.1 hPa NNW 20.4 km/h 20.4 km/h 33 % 0.0 mm 313.0 W/m2 CLR
19:12 31.3 °C 12.7 °C 1012.1 hPa NNW 29.6 km/h 29.6 km/h 32 % 0.0 mm 338.0 W/m2 CLR
19:17 31.3 °C 13.1 °C 1012.1 hPa NW 25.7 km/h 25.7 km/h 33 % 0.0 mm 297.0 W/m2 CLR
19:22 31.3 °C 12.6 °C 1012.1 hPa NNW 25.9 km/h 25.9 km/h 32 % 0.0 mm 253.0 W/m2 CLR
19:27 31.4 °C 12.8 °C 1012.1 hPa NW 27.4 km/h 27.4 km/h 32 % 0.0 mm 251.0 W/m2 CLR
19:32 31.1 °C 12.9 °C 1012.1 hPa WNW 27.8 km/h 27.8 km/h 33 % 0.0 mm 211.0 W/m2 CLR
19:37 30.9 °C 12.3 °C 1012.1 hPa NW 27.8 km/h 27.8 km/h 32 % 0.0 mm 236.0 W/m2 CLR
19:42 30.9 °C 12.7 °C 1012.1 hPa WNW 20.4 km/h 20.4 km/h 33 % 0.0 mm 221.0 W/m2 CLR
19:47 30.9 °C 12.7 °C 1012.1 hPa NW 22.5 km/h 22.5 km/h 33 % 0.0 mm 155.0 W/m2 CLR
19:52 30.8 °C 12.7 °C 1012.1 hPa NW 31.5 km/h 31.5 km/h 33 % 0.0 mm 174.0 W/m2 CLR
19:57 30.7 °C 13.0 °C 1012.1 hPa NW 25.7 km/h 25.7 km/h 34 % 0.0 mm 193.0 W/m2 CLR
20:02 30.7 °C 13.1 °C 1012.1 hPa NW 18.5 km/h 18.5 km/h 34 % 0.0 mm 169.0 W/m2 CLR
20:07 30.7 °C 13.1 °C 1012.1 hPa NNW 29.6 km/h 29.6 km/h 34 % 0.0 mm 149.0 W/m2 CLR
20:12 30.6 °C 13.3 °C 1012.1 hPa WNW 22.2 km/h 22.2 km/h 35 % 0.0 mm 130.0 W/m2 CLR
20:17 30.6 °C 13.4 °C 1012.1 hPa NW 18.5 km/h 18.5 km/h 35 % 0.0 mm 121.0 W/m2 CLR
20:22 30.4 °C 13.3 °C 1012.1 hPa NNW 25.7 km/h 25.7 km/h 35 % 0.0 mm 102.0 W/m2 CLR
20:27 30.4 °C 13.2 °C 1012.1 hPa NW 25.9 km/h 25.9 km/h 35 % 0.0 mm 88.0 W/m2 CLR
20:32 30.2 °C 13.1 °C 1012.1 hPa NNW 22.2 km/h 22.2 km/h 35 % 0.0 mm 65.0 W/m2 FEW
20:37 30.2 °C 13.4 °C 1012.4 hPa NW 19.3 km/h 19.3 km/h 36 % 0.0 mm 62.0 W/m2 SCT
20:42 30.1 °C 13.3 °C 1012.4 hPa NNW 18.5 km/h 18.5 km/h 36 % 0.0 mm 46.0 W/m2 SCT
20:47 29.9 °C 13.2 °C 1012.4 hPa NW 20.4 km/h 20.4 km/h 36 % 0.0 mm 35.0 W/m2 BKN
20:52 29.8 °C 13.2 °C 1012.4 hPa NW 14.8 km/h 14.8 km/h 36 % 0.0 mm 28.0 W/m2 BKN
20:58 29.7 °C 13.0 °C 1012.4 hPa NNW 9.3 km/h 9.3 km/h 36 % 0.0 mm 23.0 W/m2 BKN
21:03 29.4 °C 13.2 °C 1012.4 hPa NW 7.4 km/h 7.4 km/h 37 % 0.0 mm 19.0 W/m2 BKN
21:08 29.2 °C 13.1 °C 1012.8 hPa NW 11.1 km/h 11.1 km/h 37 % 0.0 mm 16.0 W/m2 BKN
21:13 29.0 °C 13.2 °C 1012.8 hPa NNW 8.0 km/h 8.0 km/h 38 % 0.0 mm 12.0 W/m2 BKN
21:18 28.8 °C 13.1 °C 1012.8 hPa NW 11.1 km/h 11.1 km/h 38 % 0.0 mm 9.0 W/m2 BKN
21:23 28.7 °C 12.6 °C 1012.8 hPa NW 9.7 km/h 9.8 km/h 37 % 0.0 mm 5.0 W/m2 OVC
21:28 28.6 °C 12.5 °C 1012.8 hPa NW 18.5 km/h 18.5 km/h 37 % 0.0 mm 0.0 W/m2 OVC
21:33 28.5 °C 12.0 °C 1013.1 hPa NW 9.7 km/h 9.7 km/h 36 % 0.0 mm 0.0 W/m2 CLR
21:38 28.3 °C 11.8 °C 1013.1 hPa WNW 9.3 km/h 9.3 km/h 36 % 0.0 mm 0.0 W/m2 CLR
21:43 28.1 °C 11.6 °C 1013.1 hPa WNW 9.3 km/h 9.3 km/h 36 % 0.0 mm 0.0 W/m2 CLR
21:48 28.1 °C 11.6 °C 1013.1 hPa WNW 7.4 km/h 7.4 km/h 36 % 0.0 mm 0.0 W/m2 CLR
21:53 27.9 °C 11.9 °C 1013.1 hPa WNW 9.7 km/h 9.7 km/h 37 % 0.0 mm 0.0 W/m2 CLR
21:58 27.8 °C 11.8 °C 1013.1 hPa WNW 9.3 km/h 9.3 km/h 37 % 0.0 mm 0.0 W/m2 CLR
22:03 27.7 °C 11.7 °C 1013.1 hPa WNW 5.6 km/h 5.6 km/h 37 % 0.0 mm 0.0 W/m2 CLR
22:08 27.5 °C 11.9 °C 1013.4 hPa WNW 9.3 km/h 9.3 km/h 38 % 0.0 mm 0.0 W/m2 CLR
22:13 27.5 °C 11.5 °C 1013.4 hPa WNW 9.7 km/h 9.7 km/h 37 % 0.0 mm 0.0 W/m2 CLR
22:18 27.6 °C 11.6 °C 1013.4 hPa West 13.0 km/h 13.0 km/h 37 % 0.0 mm 0.0 W/m2 CLR
22:23 27.6 °C 11.6 °C 1013.4 hPa West 13.0 km/h 13.0 km/h 37 % 0.0 mm 0.0 W/m2 CLR
22:28 27.6 °C 11.2 °C 1013.8 hPa West 13.0 km/h 13.0 km/h 36 % 0.0 mm 0.0 W/m2 CLR
Lo Temps de Massalio
Compliments of Weather Underground - 1.25 mb